Hauptseite
METAR-TAF:

METAR-TAF

Flughäfen :

Birmingham Airport

Birmingham, England

Breite: 52-27N, Länge: 001-44W, Höhe: 99 m

Beobachtung

Neuester Wetterbericht von vor 35 Minuten, um 05:20 UTC
Wind 5 kt aus Nord, variierte zwischen Nord und Nordost
Temperatur 10°C
Luftfeuchtigkeit 82%
Luftdruck 1023 hPa
Sichtweite 10 km oder mehr

METAR: EGBB 310520Z AUTO 01005KT 350V050 9999 NCD 10/07 Q1023

Zeit: 06:55 (05:55 UTC)

Prognose

Neuester Wetterbericht von vor 1 Stunde und 3 Minuten, um 04:52 UTC
Gültige Prognose vom 31 um 06 UTC bis 01 um 06 UTC
Wind 8 kt aus Ost
Sichtweite 10 km oder mehr
keine Wolken unter 1500 m und keine Kumulonimbus oder Gewitterwolken

TAF: EGBB 310452Z 3106/0106 09008KT CAVOK

Wetterbeobachtungen und Prognosen von mehr als 4000 Flughäfen (METAR und TAF Bericht).

Die verfügbaren Stationen werden durch gelbe und rote Markierungen auf der Karte dargestellt.

Führen Sie die Maus auf sie, um den Namen der Station zu sehen.

Darauf klicken, um die Beobachtung von Wetterbeobachtungen und Prognosen zu sehen.

Um die Karte zu ändern : klicken Sie auf den grünen Tasten mit einem schwarzen Kreuz Zum Vergrößern, auf den grünen Button mit einem Gedankenstrich zu verkleinern, oder auf die grünen Pfeile für benachbarte Karten.


METAR-TAF: